Time;durP1;ratioP1;P1;durP2;ratioP2;P2;SDS_P1;SDS_P2;PMS_P1;PMS_P2;Temp;Humidity;BMP_temperature;BMP_pressure;BME280_temperature;BME280_humidity;BME280_pressure;Samples;Min_cycle;Max_cycle;Signal;HPM_P1;HPM_P2
2023/02/17 00:02:21;;;;;;;;;5.00;3.00;;;;;21.95;38.68;101913.09;5080245;27;45518;-76
2023/02/17 00:04:46;;;;;;;;;3.75;2.75;;;;;21.97;38.41;101916.56;5072669;27;64470;-76
2023/02/17 00:07:12;;;;;;;;;4.00;4.00;;;;;22.01;38.59;101922.56;5067673;27;58735;-76
2023/02/17 00:09:37;;;;;;;;;3.25;3.00;;;;;21.94;38.61;101924.72;5066580;27;55017;-76
2023/02/17 00:12:03;;;;;;;;;6.50;3.00;;;;;22.00;38.37;101924.34;5062250;27;45438;-76
2023/02/17 00:14:28;;;;;;;;;3.00;3.00;;;;;21.95;38.52;101912.22;5069105;27;45592;-76
2023/02/17 00:16:53;;;;;;;;;3.75;3.75;;;;;21.98;38.63;101923.59;5066853;27;45403;-76
2023/02/17 00:19:25;;;;;;;;;5.00;4.00;;;;;21.93;38.84;101906.97;5070365;27;63980;-76
2023/02/17 00:21:56;;;;;;;;;4.00;3.00;;;;;21.98;38.41;101915.59;5067453;27;45535;-76
2023/02/17 00:25:00;;;;;;;;;4.50;2.75;;;;;22.00;38.77;101915.50;5067704;27;45774;-76
2023/02/17 00:27:28;;;;;;;;;2.50;2.50;;;;;21.82;38.84;101890.75;5046973;28;46935;-75
2023/02/17 00:30:05;;;;;;;;;4.25;3.50;;;;;21.99;38.88;101922.66;5021604;28;45516;-76
2023/02/17 00:32:38;;;;;;;;;3.25;3.25;;;;;21.70;38.79;101873.63;5034839;28;45449;-76
2023/02/17 00:35:07;;;;;;;;;2.50;2.50;;;;;21.72;38.81;101868.22;5020551;28;45691;-75
2023/02/17 00:37:34;;;;;;;;;4.00;4.00;;;;;21.74;38.90;101874.31;5014581;28;47421;-75
2023/02/17 00:40:12;;;;;;;;;3.50;3.25;;;;;21.66;38.64;101861.44;5034610;28;45408;-76
2023/02/17 00:42:38;;;;;;;;;4.00;3.00;;;;;21.70;39.12;101867.47;5025066;28;45436;-75
2023/02/17 00:45:07;;;;;;;;;4.75;3.00;;;;;21.94;38.54;101903.38;5012589;28;45757;-75
2023/02/17 00:47:32;;;;;;;;;6.50;3.00;;;;;21.96;38.81;101912.16;5029620;28;45406;-75
2023/02/17 00:50:03;;;;;;;;;2.25;2.00;;;;;21.70;38.48;101862.97;5041747;28;45765;-75
2023/02/17 00:52:35;;;;;;;;;3.50;3.00;;;;;21.74;38.56;101869.00;5018047;28;45482;-75
2023/02/17 00:55:00;;;;;;;;;3.25;2.50;;;;;21.76;38.69;101870.63;5014811;28;45417;-76
2023/02/17 00:57:25;;;;;;;;;3.00;3.00;;;;;21.95;38.56;101904.25;5011208;28;63172;-75
2023/02/17 00:59:51;;;;;;;;;4.00;3.75;;;;;21.92;38.29;101909.72;5062680;28;63270;-76
2023/02/17 01:02:22;;;;;;;;;2.00;2.00;;;;;21.94;38.99;101911.38;5059475;28;47032;-76
2023/02/17 01:04:54;;;;;;;;;4.50;2.25;;;;;21.89;38.37;101902.78;5051782;28;45434;-75
2023/02/17 01:07:27;;;;;;;;;4.00;3.00;;;;;21.86;38.54;101900.28;5059104;27;47475;-76
2023/02/17 01:10:35;;;;;;;;;7.25;2.50;;;;;21.86;38.39;101902.09;5080526;27;45855;-76
2023/02/17 01:13:19;;;;;;;;;2.50;2.50;;;;;21.94;38.96;101919.38;5051113;28;45411;-76
2023/02/17 01:15:51;;;;;;;;;1.00;1.00;;;;;21.78;38.63;101884.75;5058911;28;45424;-76
2023/02/17 01:18:18;;;;;;;;;4.25;3.25;;;;;21.80;39.12;101888.16;5057039;28;47020;-75
2023/02/17 01:20:44;;;;;;;;;5.00;1.25;;;;;21.70;38.59;101870.97;5056264;28;46524;-76
2023/02/17 01:23:11;;;;;;;;;4.25;2.75;;;;;21.94;38.83;101899.88;5074627;27;45461;-75
2023/02/17 01:25:37;;;;;;;;;3.00;2.00;;;;;21.94;39.02;101903.38;5061686;28;45550;-76
2023/02/17 01:28:03;;;;;;;;;2.50;2.50;;;;;21.79;38.36;101882.91;5073375;27;45389;-75
2023/02/17 01:30:29;;;;;;;;;2.25;2.25;;;;;21.78;38.82;101879.41;5088043;27;45675;-75
2023/02/17 01:32:54;;;;;;;;;1.75;1.50;;;;;21.92;38.83;101896.41;5067816;27;46757;-75
2023/02/17 01:35:19;;;;;;;;;0.00;0.00;;;;;21.90;38.61;101893.84;5074372;27;45460;-75
2023/02/17 01:37:45;;;;;;;;;2.75;2.75;;;;;21.92;38.59;101888.41;5069975;27;47172;-75
2023/02/17 01:40:12;;;;;;;;;4.25;2.00;;;;;21.84;38.63;101878.19;5066125;27;45530;-76
2023/02/17 01:42:37;;;;;;;;;2.00;2.00;;;;;21.88;38.96;101881.53;5077226;28;45534;-75
2023/02/17 01:45:18;;;;;;;;;1.75;1.75;;;;;21.93;38.85;101892.81;5070786;28;62557;-75
2023/02/17 01:47:54;;;;;;;;;1.25;1.25;;;;;21.93;38.79;101887.47;5073959;27;47096;-75
2023/02/17 01:50:23;;;;;;;;;4.00;2.00;;;;;21.89;38.51;101878.78;5079768;27;45417;-75
2023/02/17 01:52:49;;;;;;;;;2.00;2.00;;;;;21.89;38.89;101876.13;5057593;28;45454;-75
2023/02/17 01:55:17;;;;;;;;;2.00;1.75;;;;;21.89;38.68;101883.28;5058645;28;45446;-76
2023/02/17 01:57:44;;;;;;;;;2.00;1.00;;;;;21.93;38.77;101892.81;5073034;27;45464;-75
2023/02/17 02:00:11;;;;;;;;;1.75;1.50;;;;;21.91;39.03;101894.72;5080370;27;45418;-75
2023/02/17 02:02:37;;;;;;;;;2.25;2.00;;;;;21.87;39.06;101886.03;5078541;27;45280;-75
2023/02/17 02:05:02;;;;;;;;;1.50;1.50;;;;;21.87;39.03;101888.69;5068258;27;45532;-75
2023/02/17 02:07:33;;;;;;;;;2.00;2.00;;;;;21.90;38.79;101882.31;5067083;27;46280;-75
2023/02/17 02:09:59;;;;;;;;;2.00;2.00;;;;;21.83;38.79;101875.63;5055228;28;45383;-75
2023/02/17 02:12:27;;;;;;;;;2.00;1.50;;;;;21.87;39.16;101882.47;5066514;27;45340;-75
2023/02/17 02:14:55;;;;;;;;;2.75;2.75;;;;;21.90;38.63;101888.53;5066583;27;46111;-75
2023/02/17 02:17:35;;;;;;;;;2.75;1.00;;;;;21.85;38.76;101871.94;5062040;27;47251;-75
2023/02/17 02:20:00;;;;;;;;;1.75;1.75;;;;;21.89;39.09;101889.47;5063469;28;46105;-75
2023/02/17 02:22:47;;;;;;;;;3.00;2.00;;;;;21.90;39.08;101892.97;5068017;27;45500;-77
2023/02/17 02:25:12;;;;;;;;;2.00;2.00;;;;;21.89;39.04;101889.47;5067857;28;45380;-75
2023/02/17 02:27:57;;;;;;;;;2.00;2.00;;;;;21.90;38.96;101882.31;5076904;27;48159;-76
2023/02/17 02:30:28;;;;;;;;;2.50;1.75;;;;;21.89;38.96;101889.47;5073892;27;45493;-76
2023/02/17 02:33:07;;;;;;;;;3.00;2.75;;;;;21.89;38.72;101883.28;5080537;27;45471;-76
2023/02/17 02:36:02;;;;;;;;;2.00;1.25;;;;;21.88;38.71;101878.88;5067994;27;45456;-75
2023/02/17 02:38:42;;;;;;;;;3.00;2.75;;;;;21.87;39.03;101882.47;5059034;28;46711;-75
2023/02/17 02:41:16;;;;;;;;;2.00;2.00;;;;;21.84;39.16;101870.19;5076210;27;45969;-76
2023/02/17 02:43:42;;;;;;;;;4.00;2.25;;;;;21.87;38.98;101875.38;5107210;27;45532;-76
2023/02/17 02:46:08;;;;;;;;;1.50;1.50;;;;;21.82;39.21;101866.78;5062092;27;45471;-76
2023/02/17 02:48:34;;;;;;;;;2.25;1.50;;;;;21.72;38.74;101852.25;5075236;27;45537;-76
2023/02/17 02:51:05;;;;;;;;;3.00;1.25;;;;;21.87;38.85;101869.16;5073928;27;45496;-76
2023/02/17 02:53:58;;;;;;;;;1.00;1.00;;;;;21.87;39.30;101874.47;5096580;27;45294;-75
2023/02/17 02:57:19;;;;;;;;;4.50;1.00;;;;;21.87;39.03;101877.16;5069416;27;45454;-75
2023/02/17 03:00:10;;;;;;;;;2.00;2.00;;;;;21.85;38.96;101873.72;5038301;28;45469;-76
2023/02/17 03:02:58;;;;;;;;;1.75;1.75;;;;;21.86;38.93;101872.78;5020804;28;46846;-75
2023/02/17 03:05:42;;;;;;;;;3.25;2.00;;;;;21.85;39.26;101868.38;5063023;27;45447;-76
2023/02/17 03:08:08;;;;;;;;;2.25;1.75;;;;;21.84;39.18;101875.53;5072498;27;45237;-75
2023/02/17 03:10:36;;;;;;;;;1.50;1.00;;;;;21.85;38.98;101868.38;5071590;27;45683;-76
2023/02/17 03:13:02;;;;;;;;;1.00;0.00;;;;;21.80;39.04;101864.19;5060655;28;45558;-76
2023/02/17 03:15:34;;;;;;;;;1.00;1.00;;;;;21.79;39.31;101857.13;5086256;27;45469;-75
2023/02/17 03:18:00;;;;;;;;;2.25;2.00;;;;;21.85;39.38;101871.06;5074390;27;46551;-76
2023/02/17 03:20:29;;;;;;;;;2.50;2.00;;;;;21.79;38.98;101858.94;5066210;28;46471;-75
2023/02/17 03:22:55;;;;;;;;;1.25;1.25;;;;;21.84;39.07;101870.19;5067467;28;45311;-75
2023/02/17 03:25:21;;;;;;;;;1.75;1.50;;;;;21.84;39.38;101864.03;5082984;27;45724;-75
2023/02/17 03:27:46;;;;;;;;;5.00;2.00;;;;;21.78;38.97;101857.25;5076644;27;45397;-75
2023/02/17 03:30:19;;;;;;;;;1.00;1.00;;;;;21.84;39.24;101864.88;5080355;27;46173;-75
2023/02/17 03:32:45;;;;;;;;;1.75;1.00;;;;;21.84;39.26;101867.53;5088537;27;45434;-75
2023/02/17 03:35:18;;;;;;;;;2.25;1.50;;;;;21.83;39.21;101860.47;5078971;27;45520;-75
2023/02/17 03:37:49;;;;;;;;;2.00;2.00;;;;;21.58;39.20;101818.38;5069232;27;45410;-75
2023/02/17 03:40:15;;;;;;;;;2.50;0.75;;;;;21.74;39.29;101850.34;5085027;27;47895;-75
2023/02/17 03:42:51;;;;;;;;;2.00;2.00;;;;;21.82;38.91;101864.09;5071883;27;45189;-75
2023/02/17 03:45:20;;;;;;;;;3.00;2.00;;;;;21.84;39.38;101864.03;5090196;27;45221;-75
2023/02/17 03:47:49;;;;;;;;;1.25;1.25;;;;;21.70;39.39;101838.16;5066642;28;45693;-75
2023/02/17 03:50:15;;;;;;;;;1.00;1.00;;;;;21.66;39.44;101841.94;5070028;27;45458;-75
2023/02/17 03:52:40;;;;;;;;;4.50;1.50;;;;;21.60;39.24;101832.47;5078089;27;45502;-75
2023/02/17 03:55:05;;;;;;;;;1.25;1.25;;;;;21.76;39.14;101865.31;5067344;27;56663;-75
2023/02/17 03:57:31;;;;;;;;;2.00;1.25;;;;;21.72;39.42;101866.41;5072683;27;45939;-75
2023/02/17 03:59:57;;;;;;;;;2.00;0.50;;;;;21.80;39.07;101880.16;5072200;27;45998;-75
2023/02/17 04:02:22;;;;;;;;;1.00;1.00;;;;;21.81;38.99;101878.34;5062515;27;45638;-75
2023/02/17 04:04:48;;;;;;;;;1.00;1.00;;;;;21.75;39.00;101868.91;5062786;27;45406;-75
2023/02/17 04:07:13;;;;;;;;;1.00;1.00;;;;;21.75;39.16;101884.91;5068971;27;51896;-75
2023/02/17 04:09:38;;;;;;;;;2.00;2.00;;;;;21.75;39.01;101879.56;5069758;27;61110;-75
2023/02/17 04:12:04;;;;;;;;;1.00;1.00;;;;;21.80;39.29;101887.31;5073131;27;46659;-75
2023/02/17 04:14:29;;;;;;;;;3.50;2.75;;;;;21.80;39.46;101887.31;5069024;27;45501;-75
2023/02/17 04:16:55;;;;;;;;;1.00;1.00;;;;;21.79;39.49;101886.44;5074105;27;45426;-75
2023/02/17 04:19:20;;;;;;;;;1.75;1.75;;;;;21.74;39.40;101882.31;5075988;27;45341;-75
2023/02/17 04:21:45;;;;;;;;;1.00;1.00;;;;;21.78;39.53;101900.72;5048359;27;45530;-75
2023/02/17 04:24:11;;;;;;;;;1.00;1.00;;;;;21.75;39.21;101895.56;5076355;27;45713;-75
2023/02/17 04:26:36;;;;;;;;;1.00;1.00;;;;;21.73;39.26;101896.59;5060147;27;45659;-75
2023/02/17 04:29:03;;;;;;;;;2.50;2.00;;;;;21.75;39.05;101906.22;5056397;28;47298;-75
2023/02/17 04:31:28;;;;;;;;;1.00;1.00;;;;;21.74;39.27;101901.84;5064431;27;45501;-75
2023/02/17 04:33:54;;;;;;;;;0.50;0.00;;;;;21.78;39.07;101911.38;5070438;27;45473;-75
2023/02/17 04:36:19;;;;;;;;;1.75;1.00;;;;;21.77;39.10;101911.47;5099991;27;50360;-75
2023/02/17 04:38:45;;;;;;;;;4.50;2.00;;;;;21.71;39.31;101893.13;5068342;27;45795;-75
2023/02/17 04:41:10;;;;;;;;;1.25;1.25;;;;;21.77;39.22;101906.97;5057807;28;45518;-75
2023/02/17 04:43:35;;;;;;;;;2.75;1.50;;;;;21.75;39.28;101900.88;5058021;28;61436;-75
2023/02/17 04:46:01;;;;;;;;;2.00;1.00;;;;;21.76;39.06;101904.41;5073910;27;45298;-75
2023/02/17 04:48:26;;;;;;;;;3.00;1.00;;;;;21.72;39.22;101906.38;5084182;27;46977;-75
2023/02/17 04:50:52;;;;;;;;;2.00;1.00;;;;;21.76;39.09;101910.63;5066934;27;45725;-75
2023/02/17 04:53:18;;;;;;;;;2.25;1.00;;;;;21.76;39.63;101910.63;5070851;27;45559;-76
2023/02/17 04:55:43;;;;;;;;;3.00;0.25;;;;;21.73;39.39;101910.78;5057366;28;45597;-76
2023/02/17 04:58:09;;;;;;;;;3.00;1.00;;;;;21.67;39.58;101895.09;5066680;27;45445;-76
2023/02/17 05:00:34;;;;;;;;;2.25;1.00;;;;;21.76;39.64;101902.63;5074600;27;45690;-75
2023/02/17 05:03:00;;;;;;;;;2.25;1.00;;;;;21.75;39.75;101908.88;5068395;27;45507;-76
2023/02/17 05:05:25;;;;;;;;;1.75;1.00;;;;;21.69;39.63;101901.25;5076727;27;45292;-76
2023/02/17 05:07:50;;;;;;;;;1.75;1.00;;;;;21.71;39.63;101909.13;5067984;27;49461;-75
2023/02/17 05:10:16;;;;;;;;;1.50;1.00;;;;;21.75;39.77;101914.22;5103699;27;45461;-75
2023/02/17 05:12:42;;;;;;;;;1.00;1.00;;;;;21.63;39.70;101896.22;5073089;27;45411;-75
2023/02/17 05:15:08;;;;;;;;;3.00;2.00;;;;;21.73;39.40;101917.91;5074336;27;45662;-76
2023/02/17 05:17:33;;;;;;;;;1.00;1.00;;;;;21.69;39.65;101903.91;5072289;27;46554;-75
2023/02/17 05:19:59;;;;;;;;;1.00;1.00;;;;;21.71;39.75;101914.44;5067866;27;46042;-75
2023/02/17 05:22:25;;;;;;;;;3.00;1.00;;;;;21.74;39.44;101915.16;5074299;27;45800;-75
2023/02/17 05:24:50;;;;;;;;;2.00;1.75;;;;;21.68;39.71;101909.31;5064371;27;45600;-75
2023/02/17 05:27:16;;;;;;;;;1.00;1.00;;;;;21.71;39.43;101923.31;5066207;28;45467;-75
2023/02/17 05:29:41;;;;;;;;;1.75;1.75;;;;;21.63;39.58;101909.56;5063114;28;45905;-75
2023/02/17 05:32:06;;;;;;;;;2.25;1.00;;;;;21.71;39.67;101918.00;5076657;27;45259;-75
2023/02/17 05:34:32;;;;;;;;;2.25;1.25;;;;;21.74;39.71;101923.16;5072133;27;45499;-75
2023/02/17 05:36:57;;;;;;;;;3.50;2.50;;;;;21.69;39.75;101911.00;5078400;27;45459;-75
2023/02/17 05:39:23;;;;;;;;;1.25;1.00;;;;;21.68;39.76;101914.63;5079403;27;45351;-75
2023/02/17 05:41:48;;;;;;;;;1.00;1.00;;;;;21.69;39.50;101919.88;5069416;27;45496;-75
2023/02/17 05:44:13;;;;;;;;;1.00;1.00;;;;;21.65;39.47;101912.13;5076419;27;45403;-75
2023/02/17 05:46:39;;;;;;;;;0.25;0.25;;;;;21.65;40.05;101913.00;5073761;27;46731;-75
2023/02/17 05:49:05;;;;;;;;;2.00;0.25;;;;;21.73;39.75;101931.25;5069603;28;45456;-75
2023/02/17 05:51:30;;;;;;;;;1.00;0.00;;;;;21.73;39.77;101931.25;5072129;27;45438;-75
2023/02/17 05:53:55;;;;;;;;;1.00;1.00;;;;;21.64;39.91;101913.94;5067013;27;45529;-76
2023/02/17 05:56:21;;;;;;;;;1.00;0.00;;;;;21.72;39.81;101933.03;5073170;27;59977;-75
2023/02/17 05:58:46;;;;;;;;;3.50;1.25;;;;;21.67;39.92;101915.56;5066972;27;63934;-75
2023/02/17 06:01:12;;;;;;;;;0.00;0.00;;;;;21.69;39.73;101932.31;5074139;27;56959;-75
2023/02/17 06:03:37;;;;;;;;;0.25;0.25;;;;;21.62;39.54;101913.19;5093371;27;45404;-75
2023/02/17 06:06:04;;;;;;;;;3.00;1.00;;;;;21.62;39.94;101913.19;5075665;27;45439;-75
2023/02/17 06:08:29;;;;;;;;;1.50;1.50;;;;;21.55;40.08;101909.13;5075620;27;45757;-75
2023/02/17 06:10:55;;;;;;;;;0.00;0.00;;;;;21.50;39.64;101905.84;5075169;27;45531;-75
2023/02/17 06:13:20;;;;;;;;;0.25;0.25;;;;;21.62;39.59;101934.50;5067343;27;60204;-75
2023/02/17 06:15:46;;;;;;;;;1.50;0.50;;;;;21.65;39.71;101936.13;5059783;28;62345;-76
2023/02/17 06:18:11;;;;;;;;;0.75;0.75;;;;;21.48;39.44;101903.28;5073404;27;45559;-75
2023/02/17 06:20:37;;;;;;;;;1.00;1.00;;;;;21.56;39.94;101926.81;5054744;28;45644;-75
2023/02/17 06:23:02;;;;;;;;;0.50;0.50;;;;;21.57;39.83;101932.06;5069288;27;45375;-75
2023/02/17 06:25:30;;;;;;;;;1.75;1.50;;;;;21.70;39.80;101966.88;5094437;27;45456;-75
2023/02/17 06:28:02;;;;;;;;;1.00;1.00;;;;;21.69;39.65;101962.53;5057213;28;46992;-75
2023/02/17 06:30:27;;;;;;;;;2.25;0.50;;;;;21.68;40.35;101967.94;5070798;27;45382;-77
2023/02/17 06:32:53;;;;;;;;;0.25;0.00;;;;;21.59;39.26;101959.47;5079896;27;45697;-75
2023/02/17 06:35:18;;;;;;;;;1.00;1.00;;;;;21.47;40.02;101944.16;5071931;27;45363;-76
2023/02/17 06:37:44;;;;;;;;;1.00;1.00;;;;;21.66;39.73;101973.34;5069973;27;45401;-77
2023/02/17 06:40:10;;;;;;;;;1.00;1.00;;;;;21.68;39.86;101976.78;5085096;27;45451;-75
2023/02/17 06:42:35;;;;;;;;;1.00;1.00;;;;;21.64;39.42;101971.69;5066368;27;45477;-75
2023/02/17 06:45:04;;;;;;;;;2.00;0.50;;;;;21.64;39.98;101972.56;5070042;28;45486;-75
2023/02/17 06:47:29;;;;;;;;;0.00;0.00;;;;;21.64;39.77;101974.34;5058365;28;45738;-75
2023/02/17 06:49:55;;;;;;;;;0.00;0.00;;;;;21.64;39.78;101982.34;5074021;27;51701;-75
2023/02/17 06:52:20;;;;;;;;;1.00;1.00;;;;;21.68;39.81;101994.56;5073370;27;45644;-74
2023/02/17 06:54:46;;;;;;;;;0.25;0.25;;;;;21.62;40.19;101987.78;5072899;27;62236;-74
2023/02/17 06:57:11;;;;;;;;;1.00;1.00;;;;;21.67;40.24;102007.00;5069949;27;45592;-75
2023/02/17 06:59:37;;;;;;;;;1.00;1.00;;;;;21.66;39.69;101999.13;5102701;27;45470;-75
2023/02/17 07:02:03;;;;;;;;;1.00;0.00;;;;;21.67;39.82;102009.66;5068793;27;45484;-75
2023/02/17 07:04:28;;;;;;;;;2.00;0.00;;;;;21.49;40.14;101978.69;5059887;27;47265;-75
2023/02/17 07:06:53;;;;;;;;;0.75;0.75;;;;;21.53;40.15;101977.59;5071569;27;45334;-73
2023/02/17 07:09:19;;;;;;;;;3.75;1.00;;;;;21.57;40.19;101993.34;5074750;27;49713;-73
2023/02/17 07:11:44;;;;;;;;;0.75;0.50;;;;;21.67;40.33;102019.47;5071956;28;45575;-73
2023/02/17 07:14:10;;;;;;;;;2.00;2.00;;;;;21.66;40.45;102021.28;5074203;27;46455;-71
2023/02/17 07:16:35;;;;;;;;;0.00;0.00;;;;;21.62;40.53;102011.75;5056545;27;45308;-72
2023/02/17 07:19:00;;;;;;;;;1.00;1.00;;;;;21.64;40.58;102023.19;5060632;28;48495;-73
2023/02/17 07:21:26;;;;;;;;;1.00;1.00;;;;;21.66;40.69;102017.78;5063550;27;45427;-73
2023/02/17 07:23:51;;;;;;;;;1.00;1.00;;;;;21.67;40.52;102023.00;5065452;27;67654;-76
2023/02/17 07:26:17;;;;;;;;;2.00;1.00;;;;;21.64;40.52;102009.88;5069788;27;45271;-77
2023/02/17 07:28:43;;;;;;;;;2.50;1.00;;;;;21.69;41.17;102023.81;5070360;27;56609;-75
2023/02/17 07:31:11;;;;;;;;;1.00;1.00;;;;;21.69;41.33;102018.47;5074419;27;45403;-80
2023/02/17 07:33:36;;;;;;;;;5.00;2.25;;;;;21.75;41.15;102030.59;5072774;27;45479;-78
2023/02/17 07:36:09;;;;;;;;;2.00;2.00;;;;;21.67;41.40;102009.66;5072902;27;45725;-81
2023/02/17 07:38:35;;;;;;;;;4.00;3.00;;;;;21.71;41.79;102021.91;5065178;28;45269;-79
2023/02/17 07:41:09;;;;;;;;;1.25;1.00;;;;;21.73;41.43;102027.16;5065983;27;45481;-80
2023/02/17 07:43:35;;;;;;;;;2.75;2.25;;;;;21.68;41.64;102022.06;5054146;27;47413;-83
2023/02/17 07:46:01;;;;;;;;;2.00;2.00;;;;;21.68;41.67;102026.53;5070673;27;46569;-80
2023/02/17 07:48:26;;;;;;;;;2.50;2.50;;;;;21.71;41.73;102035.22;5069350;27;45320;-75
2023/02/17 07:50:52;;;;;;;;;3.00;3.00;;;;;21.66;41.82;102034.59;5062656;28;45560;-87
2023/02/17 07:53:17;;;;;;;;;4.50;2.00;;;;;21.64;41.96;102030.28;5061583;27;47019;-76
2023/02/17 07:55:51;;;;;;;;;2.25;2.25;;;;;21.57;41.58;102017.31;5070574;27;60903;-76
2023/02/17 07:58:16;;;;;;;;;5.75;3.00;;;;;21.53;41.74;102007.78;5067914;28;45285;-79
2023/02/17 08:00:42;;;;;;;;;2.00;2.00;;;;;21.45;42.07;102001.94;5066919;27;45599;-77
2023/02/17 08:03:09;;;;;;;;;1.00;1.00;;;;;21.67;42.08;102038.97;5067851;27;46527;-79
2023/02/17 08:05:37;;;;;;;;;3.00;2.50;;;;;21.73;41.71;102046.66;5066742;27;45467;-74
2023/02/17 08:13:32;;;;;;;;;2.00;0.25;;;;;21.79;42.33;102043.66;5072260;27;45493;-68
2023/02/17 08:15:58;;;;;;;;;0.25;0.25;;;;;21.85;41.89;102057.59;5069072;27;63594;-68
2023/02/17 08:18:23;;;;;;;;;1.75;1.00;;;;;21.86;42.04;102049.53;5066323;27;45441;-72
2023/02/17 08:20:49;;;;;;;;;1.75;0.25;;;;;21.93;42.34;102055.41;5068232;27;50550;-67
2023/02/17 08:23:14;;;;;;;;;2.25;1.00;;;;;21.96;42.38;102057.91;5067585;28;45340;-70
2023/02/17 08:25:41;;;;;;;;;1.50;1.00;;;;;22.03;42.36;102063.75;5055828;28;45577;-70
2023/02/17 08:28:06;;;;;;;;;1.00;1.00;;;;;22.06;42.26;102064.47;5072774;28;45354;-70
2023/02/17 08:30:34;;;;;;;;;3.00;0.00;;;;;22.06;41.74;102059.13;5053114;28;45592;-71
2023/02/17 08:32:59;;;;;;;;;1.00;0.00;;;;;22.00;41.71;102051.44;5075215;27;46529;-71
2023/02/17 08:35:25;;;;;;;;;0.00;0.00;;;;;22.03;41.47;102055.75;5055553;27;51518;-71
2023/02/17 08:37:50;;;;;;;;;0.00;0.00;;;;;22.10;41.69;102066.00;5066129;27;65168;-71
2023/02/17 08:40:17;;;;;;;;;0.50;0.50;;;;;22.10;41.85;102062.50;5077786;27;60900;-71
2023/02/17 08:42:42;;;;;;;;;1.00;1.00;;;;;22.14;42.23;102066.69;5059708;28;46915;-71
2023/02/17 08:45:08;;;;;;;;;0.50;0.25;;;;;22.17;41.81;102066.53;5070333;27;45359;-72
2023/02/17 08:47:35;;;;;;;;;2.25;0.00;;;;;22.20;41.67;102071.69;5049185;28;45542;-73
2023/02/17 08:50:01;;;;;;;;;0.50;0.50;;;;;22.23;42.09;102068.00;5050359;28;45735;-73
2023/02/17 08:52:26;;;;;;;;;2.00;0.00;;;;;22.26;41.97;102060.69;5072432;27;46269;-76
2023/02/17 08:54:51;;;;;;;;;0.00;0.00;;;;;22.27;42.43;102067.75;5071405;27;45391;-73
2023/02/17 08:57:17;;;;;;;;;0.25;0.00;;;;;22.29;41.97;102065.00;5051665;28;45579;-74
2023/02/17 08:59:46;;;;;;;;;0.00;0.00;;;;;22.28;42.22;102066.84;5068087;28;45552;-76
2023/02/17 09:02:12;;;;;;;;;0.75;0.50;;;;;22.31;42.08;102064.00;5065078;28;45446;-79
2023/02/17 09:04:37;;;;;;;;;0.00;0.00;;;;;22.32;42.37;102063.03;5072361;27;45277;-70
2023/02/17 09:07:03;;;;;;;;;1.75;0.50;;;;;22.34;42.08;102057.63;5078810;27;45200;-80
2023/02/17 09:09:28;;;;;;;;;2.25;0.00;;;;;22.41;41.78;102063.47;5056121;28;45683;-79
2023/02/17 09:11:57;;;;;;;;;1.50;0.00;;;;;22.42;42.40;102067.88;5058321;28;47304;-84
2023/02/17 09:14:22;;;;;;;;;0.75;0.75;;;;;22.37;42.21;102055.66;5068454;28;46074;-81
2023/02/17 09:16:50;;;;;;;;;2.50;1.50;;;;;22.47;42.36;102073.78;5074540;27;45573;-80
2023/02/17 09:19:15;;;;;;;;;4.00;2.75;;;;;22.49;41.88;102071.94;5066587;27;45577;-77
2023/02/17 09:21:40;;;;;;;;;1.75;1.00;;;;;22.51;42.06;102070.03;5076805;27;47297;-71
2023/02/17 09:24:06;;;;;;;;;1.00;1.00;;;;;22.55;42.45;102076.91;5051177;27;67183;-74
2023/02/17 09:26:33;;;;;;;;;1.00;1.00;;;;;22.55;42.20;102077.75;5075384;27;45524;-73
2023/02/17 09:29:00;;;;;;;;;3.75;2.00;;;;;22.59;42.27;102078.44;5070096;27;45387;-73
2023/02/17 09:31:26;;;;;;;;;1.25;1.00;;;;;22.61;42.51;102073.03;5065942;27;45355;-72
2023/02/17 09:33:52;;;;;;;;;3.00;1.25;;;;;22.63;41.91;102077.34;5071844;27;45267;-80
2023/02/17 09:36:20;;;;;;;;;2.00;1.00;;;;;22.65;42.31;102078.13;5071768;28;45465;-74
2023/02/17 09:38:46;;;;;;;;;1.00;1.00;;;;;22.69;42.12;102076.13;5067101;27;45510;-74
2023/02/17 09:41:31;;;;;;;;;1.00;1.00;;;;;22.73;41.99;102086.56;5073092;27;46179;-76
2023/02/17 09:43:57;;;;;;;;;1.75;0.00;;;;;22.76;42.32;102093.50;5069814;27;45566;-74
2023/02/17 09:46:35;;;;;;;;;1.25;1.00;;;;;22.78;42.11;102086.28;5066497;27;45430;-86
2023/02/17 09:49:14;;;;;;;;;1.25;1.00;;;;;22.78;41.91;102072.94;5083973;27;45454;-82
2023/02/17 09:52:26;;;;;;;;;2.50;2.00;;;;;22.83;41.86;102078.03;5064453;27;46911;-77
2023/02/17 09:55:07;;;;;;;;;2.75;1.25;;;;;22.85;42.47;102074.28;5078421;27;45528;-77
2023/02/17 09:57:50;;;;;;;;;0.25;0.25;;;;;22.84;42.05;102075.25;5091447;27;45672;-77
2023/02/17 10:00:20;;;;;;;;;3.00;1.25;;;;;22.86;42.40;102069.81;5075247;27;45428;-73
2023/02/17 10:03:04;;;;;;;;;1.50;1.00;;;;;22.87;41.95;102072.41;5070052;27;45543;-75
2023/02/17 10:05:35;;;;;;;;;2.00;2.00;;;;;22.87;42.25;102064.38;5057170;27;46256;-80
2023/02/17 10:08:16;;;;;;;;;0.00;0.00;;;;;22.92;42.30;102074.81;5074130;27;45469;-81
2023/02/17 10:11:04;;;;;;;;;0.25;0.00;;;;;22.95;41.76;102082.66;5060743;27;45408;-81
2023/02/17 10:13:33;;;;;;;;;1.00;1.00;;;;;22.98;42.21;102089.59;5076574;27;45458;-71
2023/02/17 10:16:03;;;;;;;;;2.75;1.00;;;;;23.02;42.25;102097.38;5067905;27;45669;-75
2023/02/17 10:18:47;;;;;;;;;2.00;0.25;;;;;23.05;42.17;102101.69;5064834;27;45573;-73
2023/02/17 10:21:22;;;;;;;;;0.25;0.25;;;;;23.03;41.78;102093.72;5073976;27;45490;-73
2023/02/17 10:23:50;;;;;;;;;2.50;0.00;;;;;23.06;42.34;102096.25;5059740;28;48170;-71
2023/02/17 10:26:28;;;;;;;;;2.00;2.00;;;;;23.08;41.90;102101.50;5065358;27;45336;-74
2023/02/17 10:29:05;;;;;;;;;1.00;0.00;;;;;23.06;41.98;102084.72;5071673;27;45180;-70
2023/02/17 10:32:01;;;;;;;;;2.75;1.25;;;;;23.10;41.54;102102.28;5045457;27;45751;-72
2023/02/17 10:34:36;;;;;;;;;3.25;1.25;;;;;23.12;41.82;102095.91;5093644;27;46208;-71
2023/02/17 10:37:04;;;;;;;;;2.00;1.00;;;;;23.13;41.45;102089.59;5070250;28;45338;-70
2023/02/17 10:39:49;;;;;;;;;0.75;0.75;;;;;23.11;41.53;102094.19;5069993;27;45491;-68
2023/02/17 10:42:29;;;;;;;;;0.25;0.25;;;;;23.11;41.68;102096.00;5072790;27;45371;-70
2023/02/17 10:45:02;;;;;;;;;1.00;0.50;;;;;23.14;41.84;102101.13;5054207;27;48290;-68
2023/02/17 10:47:28;;;;;;;;;0.50;0.00;;;;;23.11;41.77;102099.53;5068685;27;45626;-73
2023/02/17 10:49:55;;;;;;;;;1.75;1.00;;;;;23.13;41.40;102102.09;5069236;27;52790;-73
2023/02/17 10:52:35;;;;;;;;;1.00;0.25;;;;;23.14;41.43;102101.13;5066346;27;45556;-88
2023/02/17 10:55:06;;;;;;;;;1.75;1.00;;;;;23.11;41.46;102090.66;5097008;27;45884;-75
2023/02/17 10:57:35;;;;;;;;;2.25;1.25;;;;;23.11;41.69;102096.84;5077405;27;45365;-75
2023/02/17 11:00:01;;;;;;;;;2.25;1.50;;;;;23.16;41.51;102099.28;5077110;27;45500;-73
2023/02/17 11:02:41;;;;;;;;;1.50;0.50;;;;;23.16;41.69;102090.38;5073742;27;45537;-73
2023/02/17 11:05:06;;;;;;;;;5.00;0.75;;;;;23.16;41.49;102098.38;5075360;27;46388;-73
2023/02/17 11:07:34;;;;;;;;;2.75;1.00;;;;;23.11;41.00;102098.66;5073030;27;45774;-74
2023/02/17 11:10:02;;;;;;;;;1.50;1.00;;;;;23.12;41.19;102098.59;5080655;27;45398;-77
2023/02/17 11:12:39;;;;;;;;;0.75;0.75;;;;;23.15;41.53;102105.53;5069552;27;45326;-74
2023/02/17 11:15:14;;;;;;;;;2.00;1.50;;;;;23.13;41.16;102110.13;5066949;27;45370;-71
2023/02/17 11:17:40;;;;;;;;;2.00;0.25;;;;;23.12;41.49;102109.28;5076103;28;45430;-78
2023/02/17 11:20:14;;;;;;;;;0.00;0.00;;;;;23.15;41.02;102120.72;5066108;27;45474;-72
2023/02/17 11:22:45;;;;;;;;;2.00;0.25;;;;;23.15;41.10;102129.59;5061588;27;45729;-74
2023/02/17 11:25:26;;;;;;;;;0.00;0.00;;;;;23.12;41.56;102127.97;5071166;28;45424;-71
2023/02/17 11:28:04;;;;;;;;;1.00;0.25;;;;;23.11;41.27;102126.22;5077122;28;45255;-75
2023/02/17 11:30:32;;;;;;;;;2.75;2.00;;;;;23.15;41.03;102118.03;5076309;27;45546;-77
2023/02/17 11:32:57;;;;;;;;;1.00;0.75;;;;;23.12;41.17;102117.28;5074627;28;45336;-83
2023/02/17 11:35:44;;;;;;;;;1.00;0.00;;;;;23.14;41.17;102114.50;5089884;27;47119;-76
2023/02/17 11:38:12;;;;;;;;;2.00;1.00;;;;;23.14;41.07;102111.81;5071104;27;45346;-76
2023/02/17 11:40:37;;;;;;;;;1.00;1.00;;;;;23.17;41.28;102118.81;5070391;27;45486;-79